sensor_id;sensor_type;location;lat;lon;timestamp;temperature;humidity
9410;DHT22;4744;52.576;13.568;2024-02-23T00:01:47;9.40;99.30
9410;DHT22;4744;52.576;13.568;2024-02-23T00:04:14;9.40;99.10
9410;DHT22;4744;52.576;13.568;2024-02-23T00:06:43;9.40;99.10
9410;DHT22;4744;52.576;13.568;2024-02-23T00:09:09;9.40;99.10
9410;DHT22;4744;52.576;13.568;2024-02-23T00:11:39;9.40;99.10
9410;DHT22;4744;52.576;13.568;2024-02-23T00:14:10;9.40;99.00
9410;DHT22;4744;52.576;13.568;2024-02-23T00:16:40;9.40;99.00
9410;DHT22;4744;52.576;13.568;2024-02-23T00:19:07;9.30;99.10
9410;DHT22;4744;52.576;13.568;2024-02-23T00:21:35;9.40;99.10
9410;DHT22;4744;52.576;13.568;2024-02-23T00:24:04;9.30;99.10
9410;DHT22;4744;52.576;13.568;2024-02-23T00:26:31;9.30;99.10
9410;DHT22;4744;52.576;13.568;2024-02-23T00:28:58;9.30;99.20
9410;DHT22;4744;52.576;13.568;2024-02-23T00:31:24;9.40;99.00
9410;DHT22;4744;52.576;13.568;2024-02-23T00:33:51;9.40;98.80
9410;DHT22;4744;52.576;13.568;2024-02-23T00:36:18;9.40;98.40
9410;DHT22;4744;52.576;13.568;2024-02-23T00:38:45;9.40;98.30
9410;DHT22;4744;52.576;13.568;2024-02-23T00:41:14;9.40;98.30
9410;DHT22;4744;52.576;13.568;2024-02-23T00:43:42;9.40;98.10
9410;DHT22;4744;52.576;13.568;2024-02-23T00:46:09;9.40;98.00
9410;DHT22;4744;52.576;13.568;2024-02-23T00:48:35;9.40;97.90
9410;DHT22;4744;52.576;13.568;2024-02-23T00:51:03;9.40;97.70
9410;DHT22;4744;52.576;13.568;2024-02-23T00:53:30;9.40;97.70
9410;DHT22;4744;52.576;13.568;2024-02-23T00:55:57;9.40;97.50
9410;DHT22;4744;52.576;13.568;2024-02-23T00:58:26;9.40;97.10
9410;DHT22;4744;52.576;13.568;2024-02-23T01:00:52;9.50;96.80
9410;DHT22;4744;52.576;13.568;2024-02-23T01:03:19;9.50;96.60
9410;DHT22;4744;52.576;13.568;2024-02-23T01:05:45;9.50;96.50
9410;DHT22;4744;52.576;13.568;2024-02-23T01:08:12;9.40;96.80
9410;DHT22;4744;52.576;13.568;2024-02-23T01:10:39;9.40;96.90
9410;DHT22;4744;52.576;13.568;2024-02-23T01:13:06;9.40;96.80
9410;DHT22;4744;52.576;13.568;2024-02-23T01:15:34;9.40;96.60
9410;DHT22;4744;52.576;13.568;2024-02-23T01:18:01;9.40;96.60
9410;DHT22;4744;52.576;13.568;2024-02-23T01:20:28;9.40;96.60
9410;DHT22;4744;52.576;13.568;2024-02-23T01:22:55;9.40;96.50
9410;DHT22;4744;52.576;13.568;2024-02-23T01:25:22;9.40;96.30
9410;DHT22;4744;52.576;13.568;2024-02-23T01:27:49;9.40;96.20
9410;DHT22;4744;52.576;13.568;2024-02-23T01:30:16;9.40;95.90
9410;DHT22;4744;52.576;13.568;2024-02-23T01:32:48;9.40;95.90
9410;DHT22;4744;52.576;13.568;2024-02-23T01:35:16;9.40;95.40
9410;DHT22;4744;52.576;13.568;2024-02-23T01:37:43;9.40;95.10
9410;DHT22;4744;52.576;13.568;2024-02-23T01:40:10;9.40;94.90
9410;DHT22;4744;52.576;13.568;2024-02-23T01:42:38;9.40;94.90
9410;DHT22;4744;52.576;13.568;2024-02-23T01:45:06;9.50;94.10
9410;DHT22;4744;52.576;13.568;2024-02-23T01:47:33;9.50;93.30
9410;DHT22;4744;52.576;13.568;2024-02-23T01:50:02;9.60;92.70
9410;DHT22;4744;52.576;13.568;2024-02-23T01:52:29;9.60;92.00
9410;DHT22;4744;52.576;13.568;2024-02-23T01:54:56;9.60;91.10
9410;DHT22;4744;52.576;13.568;2024-02-23T01:57:23;9.70;90.20
9410;DHT22;4744;52.576;13.568;2024-02-23T01:59:51;9.80;89.50
9410;DHT22;4744;52.576;13.568;2024-02-23T02:02:18;9.90;88.50
9410;DHT22;4744;52.576;13.568;2024-02-23T02:04:45;10.00;87.30
9410;DHT22;4744;52.576;13.568;2024-02-23T02:07:13;10.00;86.20
9410;DHT22;4744;52.576;13.568;2024-02-23T02:09:40;10.00;83.50
9410;DHT22;4744;52.576;13.568;2024-02-23T02:12:08;10.10;82.00
9410;DHT22;4744;52.576;13.568;2024-02-23T02:14:35;10.10;81.10
9410;DHT22;4744;52.576;13.568;2024-02-23T02:17:02;10.20;78.80
9410;DHT22;4744;52.576;13.568;2024-02-23T02:19:29;10.20;77.80
9410;DHT22;4744;52.576;13.568;2024-02-23T02:21:56;10.20;76.20
9410;DHT22;4744;52.576;13.568;2024-02-23T02:24:24;10.20;76.40
9410;DHT22;4744;52.576;13.568;2024-02-23T02:26:54;10.10;75.50
9410;DHT22;4744;52.576;13.568;2024-02-23T02:29:21;10.10;73.80
9410;DHT22;4744;52.576;13.568;2024-02-23T02:31:48;10.10;74.00
9410;DHT22;4744;52.576;13.568;2024-02-23T02:34:14;10.00;74.00
9410;DHT22;4744;52.576;13.568;2024-02-23T02:36:41;10.00;73.60
9410;DHT22;4744;52.576;13.568;2024-02-23T02:39:08;10.00;74.30
9410;DHT22;4744;52.576;13.568;2024-02-23T02:41:37;9.90;75.20
9410;DHT22;4744;52.576;13.568;2024-02-23T02:44:04;9.80;75.70
9410;DHT22;4744;52.576;13.568;2024-02-23T02:46:31;9.80;75.80
9410;DHT22;4744;52.576;13.568;2024-02-23T02:48:58;9.70;76.00
9410;DHT22;4744;52.576;13.568;2024-02-23T02:51:24;9.60;75.00
9410;DHT22;4744;52.576;13.568;2024-02-23T02:53:51;9.60;70.40
9410;DHT22;4744;52.576;13.568;2024-02-23T02:56:18;9.50;69.60
9410;DHT22;4744;52.576;13.568;2024-02-23T02:58:47;9.50;68.20
9410;DHT22;4744;52.576;13.568;2024-02-23T03:01:13;9.40;67.40
9410;DHT22;4744;52.576;13.568;2024-02-23T03:03:40;9.40;67.80
9410;DHT22;4744;52.576;13.568;2024-02-23T03:06:07;9.40;67.50
9410;DHT22;4744;52.576;13.568;2024-02-23T03:08:35;9.30;68.20
9410;DHT22;4744;52.576;13.568;2024-02-23T03:11:02;9.20;68.70
9410;DHT22;4744;52.576;13.568;2024-02-23T03:13:29;9.10;68.40
9410;DHT22;4744;52.576;13.568;2024-02-23T03:15:58;9.10;69.20
9410;DHT22;4744;52.576;13.568;2024-02-23T03:18:25;9.00;68.80
9410;DHT22;4744;52.576;13.568;2024-02-23T03:20:54;9.00;67.80
9410;DHT22;4744;52.576;13.568;2024-02-23T03:23:21;9.00;68.60
9410;DHT22;4744;52.576;13.568;2024-02-23T03:25:48;8.90;68.60
9410;DHT22;4744;52.576;13.568;2024-02-23T03:28:15;8.90;67.10
9410;DHT22;4744;52.576;13.568;2024-02-23T03:30:41;8.90;67.50
9410;DHT22;4744;52.576;13.568;2024-02-23T03:33:09;8.90;68.40
9410;DHT22;4744;52.576;13.568;2024-02-23T03:35:36;8.80;67.60
9410;DHT22;4744;52.576;13.568;2024-02-23T03:38:03;8.80;68.10
9410;DHT22;4744;52.576;13.568;2024-02-23T03:40:30;8.70;68.50
9410;DHT22;4744;52.576;13.568;2024-02-23T03:42:58;8.60;67.90
9410;DHT22;4744;52.576;13.568;2024-02-23T03:45:25;8.60;68.10
9410;DHT22;4744;52.576;13.568;2024-02-23T03:47:52;8.60;67.30
9410;DHT22;4744;52.576;13.568;2024-02-23T03:50:20;8.60;67.80
9410;DHT22;4744;52.576;13.568;2024-02-23T03:52:47;8.50;67.70
9410;DHT22;4744;52.576;13.568;2024-02-23T03:55:14;8.50;67.00
9410;DHT22;4744;52.576;13.568;2024-02-23T03:57:41;8.50;67.80
9410;DHT22;4744;52.576;13.568;2024-02-23T04:00:09;8.40;67.50
9410;DHT22;4744;52.576;13.568;2024-02-23T04:02:36;8.40;67.70
9410;DHT22;4744;52.576;13.568;2024-02-23T04:05:05;8.30;67.50
9410;DHT22;4744;52.576;13.568;2024-02-23T04:07:34;8.30;67.80
9410;DHT22;4744;52.576;13.568;2024-02-23T04:10:01;8.30;67.10
9410;DHT22;4744;52.576;13.568;2024-02-23T04:12:30;8.30;68.20
9410;DHT22;4744;52.576;13.568;2024-02-23T04:14:57;8.30;67.60
9410;DHT22;4744;52.576;13.568;2024-02-23T04:17:24;8.20;68.00
9410;DHT22;4744;52.576;13.568;2024-02-23T04:19:51;8.20;68.20
9410;DHT22;4744;52.576;13.568;2024-02-23T04:22:17;8.20;67.30
9410;DHT22;4744;52.576;13.568;2024-02-23T04:24:46;8.20;67.70
9410;DHT22;4744;52.576;13.568;2024-02-23T04:27:13;8.20;68.10
9410;DHT22;4744;52.576;13.568;2024-02-23T04:29:39;8.20;68.30
9410;DHT22;4744;52.576;13.568;2024-02-23T04:32:06;8.20;68.20
9410;DHT22;4744;52.576;13.568;2024-02-23T04:34:34;8.10;68.80
9410;DHT22;4744;52.576;13.568;2024-02-23T04:37:01;8.10;68.90
9410;DHT22;4744;52.576;13.568;2024-02-23T04:39:28;8.10;69.40
9410;DHT22;4744;52.576;13.568;2024-02-23T04:41:56;8.00;69.50
9410;DHT22;4744;52.576;13.568;2024-02-23T04:44:23;8.00;69.50
9410;DHT22;4744;52.576;13.568;2024-02-23T04:46:49;8.00;70.40
9410;DHT22;4744;52.576;13.568;2024-02-23T04:49:16;8.00;68.30
9410;DHT22;4744;52.576;13.568;2024-02-23T04:51:43;8.00;67.70
9410;DHT22;4744;52.576;13.568;2024-02-23T04:54:10;8.00;67.10
9410;DHT22;4744;52.576;13.568;2024-02-23T04:56:37;8.00;67.20
9410;DHT22;4744;52.576;13.568;2024-02-23T04:59:06;8.00;67.10
9410;DHT22;4744;52.576;13.568;2024-02-23T05:01:35;7.90;66.90
9410;DHT22;4744;52.576;13.568;2024-02-23T05:04:02;7.90;67.00
9410;DHT22;4744;52.576;13.568;2024-02-23T05:06:30;7.90;67.00
9410;DHT22;4744;52.576;13.568;2024-02-23T05:08:57;7.80;68.00
9410;DHT22;4744;52.576;13.568;2024-02-23T05:11:24;7.80;67.90
9410;DHT22;4744;52.576;13.568;2024-02-23T05:13:51;7.80;67.80
9410;DHT22;4744;52.576;13.568;2024-02-23T05:16:19;7.80;67.80
9410;DHT22;4744;52.576;13.568;2024-02-23T05:18:46;7.80;68.10
9410;DHT22;4744;52.576;13.568;2024-02-23T05:21:14;7.80;68.20
9410;DHT22;4744;52.576;13.568;2024-02-23T05:23:41;7.80;67.40
9410;DHT22;4744;52.576;13.568;2024-02-23T05:26:08;7.80;68.00
9410;DHT22;4744;52.576;13.568;2024-02-23T05:28:36;7.80;67.90
9410;DHT22;4744;52.576;13.568;2024-02-23T05:31:03;7.70;67.60
9410;DHT22;4744;52.576;13.568;2024-02-23T05:33:32;7.60;67.90
9410;DHT22;4744;52.576;13.568;2024-02-23T05:35:59;7.50;67.90
9410;DHT22;4744;52.576;13.568;2024-02-23T05:38:26;7.50;67.50
9410;DHT22;4744;52.576;13.568;2024-02-23T05:40:53;7.50;67.30
9410;DHT22;4744;52.576;13.568;2024-02-23T05:43:20;7.40;67.20
9410;DHT22;4744;52.576;13.568;2024-02-23T05:45:47;7.20;67.90
9410;DHT22;4744;52.576;13.568;2024-02-23T05:48:13;7.20;68.00
9410;DHT22;4744;52.576;13.568;2024-02-23T05:50:42;7.10;68.60
9410;DHT22;4744;52.576;13.568;2024-02-23T05:53:09;7.00;68.30
9410;DHT22;4744;52.576;13.568;2024-02-23T05:55:36;7.00;68.40
9410;DHT22;4744;52.576;13.568;2024-02-23T05:58:03;7.00;68.70
9410;DHT22;4744;52.576;13.568;2024-02-23T06:00:30;6.90;69.40
9410;DHT22;4744;52.576;13.568;2024-02-23T06:02:58;6.90;69.60
9410;DHT22;4744;52.576;13.568;2024-02-23T06:05:25;6.90;69.60
9410;DHT22;4744;52.576;13.568;2024-02-23T06:07:53;6.80;69.60
9410;DHT22;4744;52.576;13.568;2024-02-23T06:10:20;6.80;69.50
9410;DHT22;4744;52.576;13.568;2024-02-23T06:12:47;6.80;69.30
9410;DHT22;4744;52.576;13.568;2024-02-23T06:15:14;6.70;69.50
9410;DHT22;4744;52.576;13.568;2024-02-23T06:17:42;6.70;70.00
9410;DHT22;4744;52.576;13.568;2024-02-23T06:20:10;6.70;69.50
9410;DHT22;4744;52.576;13.568;2024-02-23T06:22:38;6.60;69.60
9410;DHT22;4744;52.576;13.568;2024-02-23T06:25:07;6.60;69.30
9410;DHT22;4744;52.576;13.568;2024-02-23T06:27:34;6.60;69.20
9410;DHT22;4744;52.576;13.568;2024-02-23T06:30:02;6.60;69.30
9410;DHT22;4744;52.576;13.568;2024-02-23T06:32:29;6.50;69.70
9410;DHT22;4744;52.576;13.568;2024-02-23T06:34:56;6.50;70.20
9410;DHT22;4744;52.576;13.568;2024-02-23T06:37:23;6.50;70.40
9410;DHT22;4744;52.576;13.568;2024-02-23T06:39:50;6.50;69.90
9410;DHT22;4744;52.576;13.568;2024-02-23T06:42:21;6.50;70.20
9410;DHT22;4744;52.576;13.568;2024-02-23T06:44:48;6.40;70.80
9410;DHT22;4744;52.576;13.568;2024-02-23T06:47:15;6.40;70.90
9410;DHT22;4744;52.576;13.568;2024-02-23T06:49:43;6.40;71.10
9410;DHT22;4744;52.576;13.568;2024-02-23T06:52:10;6.40;71.20
9410;DHT22;4744;52.576;13.568;2024-02-23T06:54:36;6.40;71.20
9410;DHT22;4744;52.576;13.568;2024-02-23T06:57:04;6.40;71.20
9410;DHT22;4744;52.576;13.568;2024-02-23T06:59:32;6.40;71.90
9410;DHT22;4744;52.576;13.568;2024-02-23T07:01:59;6.40;71.90
9410;DHT22;4744;52.576;13.568;2024-02-23T07:04:26;6.40;72.30
9410;DHT22;4744;52.576;13.568;2024-02-23T07:06:54;6.40;72.20
9410;DHT22;4744;52.576;13.568;2024-02-23T07:09:21;6.40;71.90
9410;DHT22;4744;52.576;13.568;2024-02-23T07:11:48;6.40;71.50
9410;DHT22;4744;52.576;13.568;2024-02-23T07:14:15;6.40;71.50
9410;DHT22;4744;52.576;13.568;2024-02-23T07:16:44;6.40;70.60
9410;DHT22;4744;52.576;13.568;2024-02-23T07:19:11;6.40;71.20
9410;DHT22;4744;52.576;13.568;2024-02-23T07:21:38;6.40;71.20
9410;DHT22;4744;52.576;13.568;2024-02-23T07:24:05;6.50;71.00
9410;DHT22;4744;52.576;13.568;2024-02-23T07:26:32;6.50;71.00
9410;DHT22;4744;52.576;13.568;2024-02-23T07:28:59;6.50;71.00
9410;DHT22;4744;52.576;13.568;2024-02-23T07:31:26;6.50;70.40
9410;DHT22;4744;52.576;13.568;2024-02-23T07:33:54;6.50;69.70
9410;DHT22;4744;52.576;13.568;2024-02-23T07:36:21;6.60;71.20
9410;DHT22;4744;52.576;13.568;2024-02-23T07:38:49;6.60;71.00
9410;DHT22;4744;52.576;13.568;2024-02-23T07:41:16;6.60;70.00
9410;DHT22;4744;52.576;13.568;2024-02-23T07:43:43;6.60;70.10
9410;DHT22;4744;52.576;13.568;2024-02-23T07:46:10;6.60;69.90
9410;DHT22;4744;52.576;13.568;2024-02-23T07:48:37;6.60;70.10
9410;DHT22;4744;52.576;13.568;2024-02-23T07:51:06;6.60;69.90
9410;DHT22;4744;52.576;13.568;2024-02-23T07:53:33;6.60;70.70
9410;DHT22;4744;52.576;13.568;2024-02-23T07:56:00;6.60;70.60
9410;DHT22;4744;52.576;13.568;2024-02-23T07:58:28;6.60;70.90
9410;DHT22;4744;52.576;13.568;2024-02-23T08:00:55;6.60;70.70
9410;DHT22;4744;52.576;13.568;2024-02-23T08:03:22;6.50;71.00
9410;DHT22;4744;52.576;13.568;2024-02-23T08:05:49;6.60;70.70
9410;DHT22;4744;52.576;13.568;2024-02-23T08:08:17;6.50;70.40
9410;DHT22;4744;52.576;13.568;2024-02-23T08:10:44;6.50;71.00
9410;DHT22;4744;52.576;13.568;2024-02-23T08:13:11;6.60;71.50
9410;DHT22;4744;52.576;13.568;2024-02-23T08:15:38;6.60;71.90
9410;DHT22;4744;52.576;13.568;2024-02-23T08:18:05;6.70;71.80
9410;DHT22;4744;52.576;13.568;2024-02-23T08:20:32;6.90;71.00
9410;DHT22;4744;52.576;13.568;2024-02-23T08:22:59;7.00;70.40
9410;DHT22;4744;52.576;13.568;2024-02-23T08:25:27;7.10;70.70
9410;DHT22;4744;52.576;13.568;2024-02-23T08:27:55;7.20;70.30
9410;DHT22;4744;52.576;13.568;2024-02-23T08:30:22;7.30;70.30
9410;DHT22;4744;52.576;13.568;2024-02-23T08:32:49;7.50;68.70
9410;DHT22;4744;52.576;13.568;2024-02-23T08:35:16;7.50;68.50
9410;DHT22;4744;52.576;13.568;2024-02-23T08:37:42;7.50;68.80
9410;DHT22;4744;52.576;13.568;2024-02-23T08:40:10;7.50;69.20
9410;DHT22;4744;52.576;13.568;2024-02-23T08:42:39;7.50;68.80
9410;DHT22;4744;52.576;13.568;2024-02-23T08:45:06;7.50;69.80
9410;DHT22;4744;52.576;13.568;2024-02-23T08:47:35;7.50;68.90
9410;DHT22;4744;52.576;13.568;2024-02-23T08:50:02;7.40;68.90
9410;DHT22;4744;52.576;13.568;2024-02-23T08:52:29;7.40;69.70
9410;DHT22;4744;52.576;13.568;2024-02-23T08:54:56;7.50;69.50
9410;DHT22;4744;52.576;13.568;2024-02-23T08:57:23;7.50;70.00
9410;DHT22;4744;52.576;13.568;2024-02-23T08:59:52;7.50;69.50
9410;DHT22;4744;52.576;13.568;2024-02-23T09:02:19;7.60;69.40
9410;DHT22;4744;52.576;13.568;2024-02-23T09:04:46;7.80;67.90
9410;DHT22;4744;52.576;13.568;2024-02-23T09:07:13;8.00;67.70
9410;DHT22;4744;52.576;13.568;2024-02-23T09:09:40;8.20;68.00
9410;DHT22;4744;52.576;13.568;2024-02-23T09:12:08;8.50;66.40
9410;DHT22;4744;52.576;13.568;2024-02-23T09:14:36;8.80;63.00
9410;DHT22;4744;52.576;13.568;2024-02-23T09:17:06;8.90;61.50
9410;DHT22;4744;52.576;13.568;2024-02-23T09:19:34;9.00;62.00
9410;DHT22;4744;52.576;13.568;2024-02-23T09:22:02;8.90;62.20
9410;DHT22;4744;52.576;13.568;2024-02-23T09:24:30;9.00;62.40
9410;DHT22;4744;52.576;13.568;2024-02-23T09:26:57;9.00;62.90
9410;DHT22;4744;52.576;13.568;2024-02-23T09:29:23;9.20;61.10
9410;DHT22;4744;52.576;13.568;2024-02-23T09:31:50;9.00;60.60
9410;DHT22;4744;52.576;13.568;2024-02-23T09:34:19;8.90;62.20
9410;DHT22;4744;52.576;13.568;2024-02-23T09:36:46;8.90;61.90
9410;DHT22;4744;52.576;13.568;2024-02-23T09:39:13;9.00;61.60
9410;DHT22;4744;52.576;13.568;2024-02-23T09:41:40;9.00;60.10
9410;DHT22;4744;52.576;13.568;2024-02-23T09:44:08;9.00;61.30
9410;DHT22;4744;52.576;13.568;2024-02-23T09:46:37;9.00;60.80
9410;DHT22;4744;52.576;13.568;2024-02-23T09:49:04;9.20;58.70
9410;DHT22;4744;52.576;13.568;2024-02-23T09:51:35;9.20;58.50
9410;DHT22;4744;52.576;13.568;2024-02-23T09:54:03;9.20;58.20
9410;DHT22;4744;52.576;13.568;2024-02-23T09:56:30;9.20;57.50
9410;DHT22;4744;52.576;13.568;2024-02-23T09:59:00;9.20;59.50
9410;DHT22;4744;52.576;13.568;2024-02-23T10:01:28;9.30;57.80
9410;DHT22;4744;52.576;13.568;2024-02-23T10:03:59;9.30;59.40
9410;DHT22;4744;52.576;13.568;2024-02-23T10:06:27;9.40;58.40
9410;DHT22;4744;52.576;13.568;2024-02-23T10:08:55;9.40;59.30
9410;DHT22;4744;52.576;13.568;2024-02-23T10:11:26;9.60;59.10
9410;DHT22;4744;52.576;13.568;2024-02-23T10:13:53;9.80;58.50
9410;DHT22;4744;52.576;13.568;2024-02-23T10:16:20;10.00;57.50
9410;DHT22;4744;52.576;13.568;2024-02-23T10:18:47;10.10;58.00
9410;DHT22;4744;52.576;13.568;2024-02-23T10:21:15;10.20;58.10
9410;DHT22;4744;52.576;13.568;2024-02-23T10:23:42;10.30;55.80
9410;DHT22;4744;52.576;13.568;2024-02-23T10:26:11;10.00;56.40
9410;DHT22;4744;52.576;13.568;2024-02-23T10:28:38;9.80;56.30
9410;DHT22;4744;52.576;13.568;2024-02-23T10:31:05;9.60;56.80
9410;DHT22;4744;52.576;13.568;2024-02-23T10:33:33;9.40;57.40
9410;DHT22;4744;52.576;13.568;2024-02-23T10:36:01;9.20;58.70
9410;DHT22;4744;52.576;13.568;2024-02-23T10:38:32;9.20;58.10
9410;DHT22;4744;52.576;13.568;2024-02-23T10:41:01;9.20;59.60
9410;DHT22;4744;52.576;13.568;2024-02-23T10:43:36;9.20;59.80
9410;DHT22;4744;52.576;13.568;2024-02-23T10:46:07;9.30;59.90
9410;DHT22;4744;52.576;13.568;2024-02-23T10:48:39;9.20;58.90
9410;DHT22;4744;52.576;13.568;2024-02-23T10:51:07;9.00;59.60
9410;DHT22;4744;52.576;13.568;2024-02-23T10:53:34;9.00;60.00
9410;DHT22;4744;52.576;13.568;2024-02-23T10:56:03;9.00;59.80
9410;DHT22;4744;52.576;13.568;2024-02-23T10:58:32;9.20;59.30
9410;DHT22;4744;52.576;13.568;2024-02-23T11:01:00;9.20;59.50
9410;DHT22;4744;52.576;13.568;2024-02-23T11:03:28;9.20;60.90
9410;DHT22;4744;52.576;13.568;2024-02-23T11:05:55;9.40;60.20
9410;DHT22;4744;52.576;13.568;2024-02-23T11:08:22;9.20;57.50
9410;DHT22;4744;52.576;13.568;2024-02-23T11:10:50;9.10;59.40
9410;DHT22;4744;52.576;13.568;2024-02-23T11:13:17;9.20;59.90
9410;DHT22;4744;52.576;13.568;2024-02-23T11:15:46;9.40;59.00
9410;DHT22;4744;52.576;13.568;2024-02-23T11:18:22;9.50;59.00
9410;DHT22;4744;52.576;13.568;2024-02-23T11:20:54;9.70;56.50
9410;DHT22;4744;52.576;13.568;2024-02-23T11:23:21;9.80;55.50
9410;DHT22;4744;52.576;13.568;2024-02-23T11:25:59;9.80;55.40
9410;DHT22;4744;52.576;13.568;2024-02-23T11:28:26;9.90;57.00
9410;DHT22;4744;52.576;13.568;2024-02-23T11:30:55;10.00;56.60
9410;DHT22;4744;52.576;13.568;2024-02-23T11:33:25;10.10;56.70
9410;DHT22;4744;52.576;13.568;2024-02-23T11:35:52;10.00;54.50
9410;DHT22;4744;52.576;13.568;2024-02-23T11:38:21;10.00;56.30
9410;DHT22;4744;52.576;13.568;2024-02-23T11:40:48;10.00;56.20
9410;DHT22;4744;52.576;13.568;2024-02-23T11:43:16;10.00;56.40
9410;DHT22;4744;52.576;13.568;2024-02-23T11:45:47;10.10;55.70
9410;DHT22;4744;52.576;13.568;2024-02-23T11:48:15;10.10;55.70
9410;DHT22;4744;52.576;13.568;2024-02-23T11:50:42;10.00;56.60
9410;DHT22;4744;52.576;13.568;2024-02-23T11:53:09;10.10;55.70
9410;DHT22;4744;52.576;13.568;2024-02-23T11:55:36;10.00;54.70
9410;DHT22;4744;52.576;13.568;2024-02-23T11:58:03;9.80;54.90
9410;DHT22;4744;52.576;13.568;2024-02-23T12:00:32;9.70;55.30
9410;DHT22;4744;52.576;13.568;2024-02-23T12:03:01;9.60;55.80
9410;DHT22;4744;52.576;13.568;2024-02-23T12:05:29;9.50;57.30
9410;DHT22;4744;52.576;13.568;2024-02-23T12:07:56;9.40;55.80
9410;DHT22;4744;52.576;13.568;2024-02-23T12:10:24;9.20;55.40
9410;DHT22;4744;52.576;13.568;2024-02-23T12:12:53;9.20;56.20
9410;DHT22;4744;52.576;13.568;2024-02-23T12:15:21;9.20;56.30
9410;DHT22;4744;52.576;13.568;2024-02-23T12:17:49;9.20;57.50
9410;DHT22;4744;52.576;13.568;2024-02-23T12:20:16;9.20;57.80
9410;DHT22;4744;52.576;13.568;2024-02-23T12:22:44;9.20;56.70
9410;DHT22;4744;52.576;13.568;2024-02-23T12:25:12;9.20;56.20
9410;DHT22;4744;52.576;13.568;2024-02-23T12:27:44;9.20;56.10
9410;DHT22;4744;52.576;13.568;2024-02-23T12:30:16;9.20;56.20
9410;DHT22;4744;52.576;13.568;2024-02-23T12:32:44;9.20;56.30
9410;DHT22;4744;52.576;13.568;2024-02-23T12:35:11;9.20;56.20
9410;DHT22;4744;52.576;13.568;2024-02-23T12:37:38;9.20;57.40
9410;DHT22;4744;52.576;13.568;2024-02-23T12:40:09;9.20;55.90
9410;DHT22;4744;52.576;13.568;2024-02-23T12:42:36;9.10;55.30
9410;DHT22;4744;52.576;13.568;2024-02-23T12:45:04;9.00;55.60
9410;DHT22;4744;52.576;13.568;2024-02-23T12:47:31;8.90;56.40
9410;DHT22;4744;52.576;13.568;2024-02-23T12:49:58;8.90;56.00
9410;DHT22;4744;52.576;13.568;2024-02-23T12:52:25;8.90;56.50
9410;DHT22;4744;52.576;13.568;2024-02-23T12:54:52;8.90;56.30
9410;DHT22;4744;52.576;13.568;2024-02-23T12:57:20;8.90;56.70
9410;DHT22;4744;52.576;13.568;2024-02-23T12:59:48;9.00;57.30
9410;DHT22;4744;52.576;13.568;2024-02-23T13:02:15;9.00;56.80
9410;DHT22;4744;52.576;13.568;2024-02-23T13:04:42;9.10;57.60
9410;DHT22;4744;52.576;13.568;2024-02-23T13:07:14;9.00;56.70
9410;DHT22;4744;52.576;13.568;2024-02-23T13:09:42;9.00;57.10
9410;DHT22;4744;52.576;13.568;2024-02-23T13:12:09;9.00;56.70
9410;DHT22;4744;52.576;13.568;2024-02-23T13:14:37;8.90;57.60
9410;DHT22;4744;52.576;13.568;2024-02-23T13:17:04;8.90;56.10
9410;DHT22;4744;52.576;13.568;2024-02-23T13:19:31;8.90;57.00
9410;DHT22;4744;52.576;13.568;2024-02-23T13:21:58;8.90;56.70
9410;DHT22;4744;52.576;13.568;2024-02-23T13:24:27;8.80;56.40
9410;DHT22;4744;52.576;13.568;2024-02-23T13:26:54;8.80;56.70
9410;DHT22;4744;52.576;13.568;2024-02-23T13:29:21;8.70;57.40
9410;DHT22;4744;52.576;13.568;2024-02-23T13:31:49;8.60;57.60
9410;DHT22;4744;52.576;13.568;2024-02-23T13:34:16;8.60;57.30
9410;DHT22;4744;52.576;13.568;2024-02-23T13:36:43;8.60;57.60
9410;DHT22;4744;52.576;13.568;2024-02-23T13:39:10;8.60;58.90
9410;DHT22;4744;52.576;13.568;2024-02-23T13:41:38;8.60;59.60
9410;DHT22;4744;52.576;13.568;2024-02-23T13:44:05;8.60;59.30
9410;DHT22;4744;52.576;13.568;2024-02-23T13:46:36;8.60;59.00
9410;DHT22;4744;52.576;13.568;2024-02-23T13:49:07;8.60;59.10
9410;DHT22;4744;52.576;13.568;2024-02-23T13:51:35;8.60;59.40
9410;DHT22;4744;52.576;13.568;2024-02-23T13:54:02;8.50;59.20
9410;DHT22;4744;52.576;13.568;2024-02-23T13:56:29;8.60;58.60
9410;DHT22;4744;52.576;13.568;2024-02-23T13:58:56;8.60;58.90
9410;DHT22;4744;52.576;13.568;2024-02-23T14:01:23;8.60;59.30
9410;DHT22;4744;52.576;13.568;2024-02-23T14:03:50;8.60;59.70
9410;DHT22;4744;52.576;13.568;2024-02-23T14:06:19;8.60;60.00
9410;DHT22;4744;52.576;13.568;2024-02-23T14:08:46;8.60;58.10
9410;DHT22;4744;52.576;13.568;2024-02-23T14:11:14;8.60;58.70
9410;DHT22;4744;52.576;13.568;2024-02-23T14:13:41;8.60;58.80
9410;DHT22;4744;52.576;13.568;2024-02-23T14:16:10;8.60;58.90
9410;DHT22;4744;52.576;13.568;2024-02-23T14:18:37;8.60;58.70
9410;DHT22;4744;52.576;13.568;2024-02-23T14:21:05;8.50;58.70
9410;DHT22;4744;52.576;13.568;2024-02-23T14:23:34;8.50;58.70
9410;DHT22;4744;52.576;13.568;2024-02-23T14:26:01;8.50;59.00
9410;DHT22;4744;52.576;13.568;2024-02-23T14:28:28;8.50;59.70
9410;DHT22;4744;52.576;13.568;2024-02-23T14:30:55;8.60;58.70
9410;DHT22;4744;52.576;13.568;2024-02-23T14:33:22;8.60;59.50
9410;DHT22;4744;52.576;13.568;2024-02-23T14:35:49;8.50;59.30
9410;DHT22;4744;52.576;13.568;2024-02-23T14:38:16;8.40;59.20
9410;DHT22;4744;52.576;13.568;2024-02-23T14:40:45;8.40;59.60
9410;DHT22;4744;52.576;13.568;2024-02-23T14:43:12;8.40;60.60
9410;DHT22;4744;52.576;13.568;2024-02-23T14:45:39;8.40;60.60
9410;DHT22;4744;52.576;13.568;2024-02-23T14:48:07;8.40;58.40
9410;DHT22;4744;52.576;13.568;2024-02-23T14:50:34;8.30;58.30
9410;DHT22;4744;52.576;13.568;2024-02-23T14:53:01;8.20;58.50
9410;DHT22;4744;52.576;13.568;2024-02-23T14:55:28;8.20;58.40
9410;DHT22;4744;52.576;13.568;2024-02-23T14:57:57;8.20;58.50
9410;DHT22;4744;52.576;13.568;2024-02-23T15:00:24;8.20;58.20
9410;DHT22;4744;52.576;13.568;2024-02-23T15:02:51;8.10;58.30
9410;DHT22;4744;52.576;13.568;2024-02-23T15:05:18;8.20;58.20
9410;DHT22;4744;52.576;13.568;2024-02-23T15:07:46;8.10;58.50
9410;DHT22;4744;52.576;13.568;2024-02-23T15:10:13;8.10;58.20
9410;DHT22;4744;52.576;13.568;2024-02-23T15:12:40;8.00;58.80
9410;DHT22;4744;52.576;13.568;2024-02-23T15:15:09;8.00;59.20
9410;DHT22;4744;52.576;13.568;2024-02-23T15:17:36;8.00;59.20
9410;DHT22;4744;52.576;13.568;2024-02-23T15:20:04;8.00;59.10
9410;DHT22;4744;52.576;13.568;2024-02-23T15:22:31;8.00;59.10
9410;DHT22;4744;52.576;13.568;2024-02-23T15:24:58;8.00;59.70
9410;DHT22;4744;52.576;13.568;2024-02-23T15:27:25;7.90;59.90
9410;DHT22;4744;52.576;13.568;2024-02-23T15:29:52;7.90;60.00
9410;DHT22;4744;52.576;13.568;2024-02-23T15:32:20;7.90;59.80
9410;DHT22;4744;52.576;13.568;2024-02-23T15:34:47;7.90;60.10
9410;DHT22;4744;52.576;13.568;2024-02-23T15:37:14;7.80;60.30
9410;DHT22;4744;52.576;13.568;2024-02-23T15:39:41;7.90;60.80
9410;DHT22;4744;52.576;13.568;2024-02-23T15:42:08;7.80;60.70
9410;DHT22;4744;52.576;13.568;2024-02-23T15:44:35;7.80;61.00
9410;DHT22;4744;52.576;13.568;2024-02-23T15:47:02;7.80;61.30
9410;DHT22;4744;52.576;13.568;2024-02-23T15:49:30;7.80;61.40
9410;DHT22;4744;52.576;13.568;2024-02-23T15:51:58;7.80;61.60
9410;DHT22;4744;52.576;13.568;2024-02-23T15:54:25;7.80;61.60
9410;DHT22;4744;52.576;13.568;2024-02-23T15:56:53;7.80;61.60
9410;DHT22;4744;52.576;13.568;2024-02-23T15:59:20;7.80;61.90
9410;DHT22;4744;52.576;13.568;2024-02-23T16:01:47;7.80;62.10